sensor_id;sensor_type;location;lat;lon;timestamp;P1;durP1;ratioP1;P2;durP2;ratioP2
3004;SDS011;1512;51.486;6.610;2022-11-20T00:00:23;12.53;;;8.10;;
3004;SDS011;1512;51.486;6.610;2022-11-20T00:13:28;12.50;;;8.87;;
3004;SDS011;1512;51.486;6.610;2022-11-20T00:17:37;14.47;;;8.73;;
3004;SDS011;1512;51.486;6.610;2022-11-20T00:21:46;11.77;;;8.07;;
3004;SDS011;1512;51.486;6.610;2022-11-20T00:26:00;20.87;;;7.83;;
3004;SDS011;1512;51.486;6.610;2022-11-20T00:30:11;17.07;;;9.23;;
3004;SDS011;1512;51.486;6.610;2022-11-20T00:34:21;15.00;;;10.33;;
3004;SDS011;1512;51.486;6.610;2022-11-20T00:38:30;12.23;;;7.53;;
3004;SDS011;1512;51.486;6.610;2022-11-20T00:42:40;13.93;;;7.97;;
3004;SDS011;1512;51.486;6.610;2022-11-20T00:46:49;12.30;;;7.50;;
3004;SDS011;1512;51.486;6.610;2022-11-20T00:50:58;11.70;;;7.73;;
3004;SDS011;1512;51.486;6.610;2022-11-20T00:55:06;9.70;;;7.90;;
3004;SDS011;1512;51.486;6.610;2022-11-20T01:08:11;16.33;;;7.93;;
3004;SDS011;1512;51.486;6.610;2022-11-20T01:12:21;10.30;;;8.77;;
3004;SDS011;1512;51.486;6.610;2022-11-20T01:16:34;13.07;;;8.77;;
3004;SDS011;1512;51.486;6.610;2022-11-20T01:20:44;13.60;;;8.70;;
3004;SDS011;1512;51.486;6.610;2022-11-20T01:24:53;13.13;;;10.13;;
3004;SDS011;1512;51.486;6.610;2022-11-20T01:29:02;14.20;;;9.20;;
3004;SDS011;1512;51.486;6.610;2022-11-20T01:37:39;11.00;;;9.40;;
3004;SDS011;1512;51.486;6.610;2022-11-20T01:41:49;12.63;;;9.70;;
3004;SDS011;1512;51.486;6.610;2022-11-20T01:46:17;10.60;;;7.83;;
3004;SDS011;1512;51.486;6.610;2022-11-20T01:50:26;13.77;;;8.60;;
3004;SDS011;1512;51.486;6.610;2022-11-20T01:54:38;11.33;;;8.13;;
3004;SDS011;1512;51.486;6.610;2022-11-20T01:58:49;10.70;;;8.10;;
3004;SDS011;1512;51.486;6.610;2022-11-20T02:03:00;12.97;;;9.17;;
3004;SDS011;1512;51.486;6.610;2022-11-20T02:07:11;18.07;;;9.90;;
3004;SDS011;1512;51.486;6.610;2022-11-20T02:11:21;12.40;;;9.43;;
3004;SDS011;1512;51.486;6.610;2022-11-20T02:15:30;15.20;;;10.00;;
3004;SDS011;1512;51.486;6.610;2022-11-20T02:19:41;19.00;;;11.70;;
3004;SDS011;1512;51.486;6.610;2022-11-20T02:28:13;12.97;;;9.33;;
3004;SDS011;1512;51.486;6.610;2022-11-20T02:32:33;19.83;;;10.33;;
3004;SDS011;1512;51.486;6.610;2022-11-20T02:36:43;16.17;;;9.90;;
3004;SDS011;1512;51.486;6.610;2022-11-20T02:40:53;15.37;;;9.60;;
3004;SDS011;1512;51.486;6.610;2022-11-20T02:45:02;14.13;;;9.60;;
3004;SDS011;1512;51.486;6.610;2022-11-20T02:49:11;15.93;;;10.10;;
3004;SDS011;1512;51.486;6.610;2022-11-20T02:53:20;15.00;;;9.80;;
3004;SDS011;1512;51.486;6.610;2022-11-20T02:57:35;12.30;;;9.70;;
3004;SDS011;1512;51.486;6.610;2022-11-20T03:01:43;15.70;;;8.43;;
3004;SDS011;1512;51.486;6.610;2022-11-20T03:05:52;14.93;;;11.80;;
3004;SDS011;1512;51.486;6.610;2022-11-20T03:10:00;15.23;;;9.20;;
3004;SDS011;1512;51.486;6.610;2022-11-20T03:14:09;12.53;;;9.63;;
3004;SDS011;1512;51.486;6.610;2022-11-20T03:18:17;14.40;;;9.60;;
3004;SDS011;1512;51.486;6.610;2022-11-20T03:22:28;22.43;;;12.60;;
3004;SDS011;1512;51.486;6.610;2022-11-20T03:26:38;18.83;;;9.77;;
3004;SDS011;1512;51.486;6.610;2022-11-20T03:30:47;13.17;;;7.97;;
3004;SDS011;1512;51.486;6.610;2022-11-20T03:34:55;19.13;;;9.40;;
3004;SDS011;1512;51.486;6.610;2022-11-20T03:39:04;15.53;;;9.57;;
3004;SDS011;1512;51.486;6.610;2022-11-20T03:43:13;16.17;;;9.23;;
3004;SDS011;1512;51.486;6.610;2022-11-20T03:47:22;15.47;;;10.50;;
3004;SDS011;1512;51.486;6.610;2022-11-20T03:51:31;21.00;;;10.87;;
3004;SDS011;1512;51.486;6.610;2022-11-20T03:55:41;15.80;;;10.43;;
3004;SDS011;1512;51.486;6.610;2022-11-20T03:59:50;13.90;;;9.90;;
3004;SDS011;1512;51.486;6.610;2022-11-20T04:03:58;22.37;;;11.90;;
3004;SDS011;1512;51.486;6.610;2022-11-20T04:08:07;17.13;;;10.53;;
3004;SDS011;1512;51.486;6.610;2022-11-20T04:16:44;11.30;;;9.50;;
3004;SDS011;1512;51.486;6.610;2022-11-20T04:20:52;17.30;;;10.13;;
3004;SDS011;1512;51.486;6.610;2022-11-20T04:25:01;13.50;;;9.23;;
3004;SDS011;1512;51.486;6.610;2022-11-20T04:29:11;13.00;;;9.73;;
3004;SDS011;1512;51.486;6.610;2022-11-20T04:33:19;20.20;;;10.37;;
3004;SDS011;1512;51.486;6.610;2022-11-20T04:41:57;14.20;;;9.20;;
3004;SDS011;1512;51.486;6.610;2022-11-20T04:46:43;12.83;;;10.37;;
3004;SDS011;1512;51.486;6.610;2022-11-20T04:50:52;13.67;;;9.83;;
3004;SDS011;1512;51.486;6.610;2022-11-20T04:55:01;16.50;;;10.00;;
3004;SDS011;1512;51.486;6.610;2022-11-20T05:03:32;11.93;;;9.20;;
3004;SDS011;1512;51.486;6.610;2022-11-20T05:07:43;14.73;;;9.60;;
3004;SDS011;1512;51.486;6.610;2022-11-20T05:11:51;14.43;;;11.03;;
3004;SDS011;1512;51.486;6.610;2022-11-20T05:16:09;16.07;;;10.37;;
3004;SDS011;1512;51.486;6.610;2022-11-20T05:20:15;14.13;;;10.07;;
3004;SDS011;1512;51.486;6.610;2022-11-20T05:24:24;12.80;;;9.60;;
3004;SDS011;1512;51.486;6.610;2022-11-20T05:28:33;15.30;;;9.90;;
3004;SDS011;1512;51.486;6.610;2022-11-20T05:32:42;14.70;;;8.93;;
3004;SDS011;1512;51.486;6.610;2022-11-20T05:36:50;12.47;;;10.77;;
3004;SDS011;1512;51.486;6.610;2022-11-20T05:41:06;17.03;;;10.00;;
3004;SDS011;1512;51.486;6.610;2022-11-20T05:45:16;14.47;;;10.30;;
3004;SDS011;1512;51.486;6.610;2022-11-20T05:49:24;15.27;;;9.47;;
3004;SDS011;1512;51.486;6.610;2022-11-20T05:53:33;16.97;;;9.90;;
3004;SDS011;1512;51.486;6.610;2022-11-20T05:57:42;15.00;;;10.70;;
3004;SDS011;1512;51.486;6.610;2022-11-20T06:01:51;15.37;;;10.57;;
3004;SDS011;1512;51.486;6.610;2022-11-20T06:06:00;10.33;;;8.30;;
3004;SDS011;1512;51.486;6.610;2022-11-20T06:10:10;16.52;;;10.80;;
3004;SDS011;1512;51.486;6.610;2022-11-20T06:14:19;20.03;;;11.60;;
3004;SDS011;1512;51.486;6.610;2022-11-20T06:18:27;16.53;;;11.70;;
3004;SDS011;1512;51.486;6.610;2022-11-20T06:22:37;13.97;;;11.27;;
3004;SDS011;1512;51.486;6.610;2022-11-20T06:31:14;15.67;;;11.83;;
3004;SDS011;1512;51.486;6.610;2022-11-20T06:35:24;14.23;;;9.80;;
3004;SDS011;1512;51.486;6.610;2022-11-20T06:39:33;17.17;;;10.40;;
3004;SDS011;1512;51.486;6.610;2022-11-20T06:43:41;17.93;;;9.47;;
3004;SDS011;1512;51.486;6.610;2022-11-20T06:47:50;21.30;;;10.27;;
3004;SDS011;1512;51.486;6.610;2022-11-20T06:51:59;19.43;;;11.97;;
3004;SDS011;1512;51.486;6.610;2022-11-20T07:00:36;16.70;;;10.93;;
3004;SDS011;1512;51.486;6.610;2022-11-20T07:04:44;16.53;;;10.30;;
3004;SDS011;1512;51.486;6.610;2022-11-20T07:08:53;15.30;;;8.93;;
3004;SDS011;1512;51.486;6.610;2022-11-20T07:13:02;16.03;;;10.43;;
3004;SDS011;1512;51.486;6.610;2022-11-20T07:17:11;15.37;;;10.87;;
3004;SDS011;1512;51.486;6.610;2022-11-20T07:21:20;16.33;;;11.50;;
3004;SDS011;1512;51.486;6.610;2022-11-20T07:25:28;19.13;;;11.90;;
3004;SDS011;1512;51.486;6.610;2022-11-20T07:29:37;17.40;;;12.33;;
3004;SDS011;1512;51.486;6.610;2022-11-20T07:33:46;20.73;;;11.20;;
3004;SDS011;1512;51.486;6.610;2022-11-20T07:37:55;13.23;;;10.50;;
3004;SDS011;1512;51.486;6.610;2022-11-20T07:42:04;14.80;;;11.47;;
3004;SDS011;1512;51.486;6.610;2022-11-20T07:46:14;15.70;;;10.20;;
3004;SDS011;1512;51.486;6.610;2022-11-20T07:50:23;13.63;;;9.07;;
3004;SDS011;1512;51.486;6.610;2022-11-20T07:54:32;14.50;;;9.30;;
3004;SDS011;1512;51.486;6.610;2022-11-20T07:58:41;10.17;;;9.27;;
3004;SDS011;1512;51.486;6.610;2022-11-20T08:02:49;18.10;;;12.60;;
3004;SDS011;1512;51.486;6.610;2022-11-20T08:06:58;19.37;;;11.33;;
3004;SDS011;1512;51.486;6.610;2022-11-20T08:11:06;19.67;;;11.93;;
3004;SDS011;1512;51.486;6.610;2022-11-20T08:15:33;23.23;;;12.40;;
3004;SDS011;1512;51.486;6.610;2022-11-20T08:19:43;17.00;;;12.57;;
3004;SDS011;1512;51.486;6.610;2022-11-20T08:23:51;19.53;;;11.90;;
3004;SDS011;1512;51.486;6.610;2022-11-20T08:28:07;20.53;;;11.43;;
3004;SDS011;1512;51.486;6.610;2022-11-20T08:32:18;21.73;;;14.00;;
3004;SDS011;1512;51.486;6.610;2022-11-20T08:40:58;21.63;;;11.60;;
3004;SDS011;1512;51.486;6.610;2022-11-20T08:45:34;23.60;;;12.90;;
3004;SDS011;1512;51.486;6.610;2022-11-20T08:49:43;21.60;;;13.93;;
3004;SDS011;1512;51.486;6.610;2022-11-20T08:53:52;20.80;;;15.80;;
3004;SDS011;1512;51.486;6.610;2022-11-20T08:58:04;21.53;;;13.10;;
3004;SDS011;1512;51.486;6.610;2022-11-20T09:02:13;22.33;;;13.30;;
3004;SDS011;1512;51.486;6.610;2022-11-20T09:06:22;17.30;;;12.73;;
3004;SDS011;1512;51.486;6.610;2022-11-20T09:10:30;21.10;;;11.53;;
3004;SDS011;1512;51.486;6.610;2022-11-20T09:14:39;21.87;;;14.63;;
3004;SDS011;1512;51.486;6.610;2022-11-20T09:18:49;20.43;;;14.27;;
3004;SDS011;1512;51.486;6.610;2022-11-20T09:22:59;22.50;;;13.33;;
3004;SDS011;1512;51.486;6.610;2022-11-20T09:27:08;19.83;;;13.67;;
3004;SDS011;1512;51.486;6.610;2022-11-20T09:31:21;27.37;;;15.30;;
3004;SDS011;1512;51.486;6.610;2022-11-20T09:35:30;17.73;;;13.57;;
3004;SDS011;1512;51.486;6.610;2022-11-20T09:39:39;25.63;;;15.03;;
3004;SDS011;1512;51.486;6.610;2022-11-20T09:48:29;22.57;;;13.33;;
3004;SDS011;1512;51.486;6.610;2022-11-20T10:01:29;19.57;;;12.80;;
3004;SDS011;1512;51.486;6.610;2022-11-20T10:05:46;20.40;;;14.43;;
3004;SDS011;1512;51.486;6.610;2022-11-20T10:09:57;20.70;;;13.07;;
3004;SDS011;1512;51.486;6.610;2022-11-20T10:32:18;35.23;;;21.63;;
3004;SDS011;1512;51.486;6.610;2022-11-20T10:36:30;24.40;;;14.10;;
3004;SDS011;1512;51.486;6.610;2022-11-20T10:40:41;21.77;;;14.50;;
3004;SDS011;1512;51.486;6.610;2022-11-20T10:44:52;22.77;;;15.40;;
3004;SDS011;1512;51.486;6.610;2022-11-20T10:49:12;20.33;;;14.53;;
3004;SDS011;1512;51.486;6.610;2022-11-20T10:57:47;22.23;;;13.30;;
3004;SDS011;1512;51.486;6.610;2022-11-20T11:02:19;20.03;;;13.27;;
3004;SDS011;1512;51.486;6.610;2022-11-20T11:11:00;24.40;;;15.00;;
3004;SDS011;1512;51.486;6.610;2022-11-20T11:19:56;18.80;;;12.80;;
3004;SDS011;1512;51.486;6.610;2022-11-20T11:24:15;17.00;;;12.17;;
3004;SDS011;1512;51.486;6.610;2022-11-20T11:28:35;25.03;;;13.73;;
3004;SDS011;1512;51.486;6.610;2022-11-20T11:32:44;22.98;;;13.85;;
3004;SDS011;1512;51.486;6.610;2022-11-20T11:41:20;26.43;;;12.77;;
3004;SDS011;1512;51.486;6.610;2022-11-20T11:59:04;17.17;;;11.50;;
3004;SDS011;1512;51.486;6.610;2022-11-20T12:03:21;22.53;;;12.57;;
3004;SDS011;1512;51.486;6.610;2022-11-20T12:07:45;20.43;;;12.57;;
3004;SDS011;1512;51.486;6.610;2022-11-20T12:16:24;19.80;;;10.77;;
3004;SDS011;1512;51.486;6.610;2022-11-20T12:25:27;19.00;;;12.37;;
3004;SDS011;1512;51.486;6.610;2022-11-20T12:38:35;17.30;;;11.97;;
3004;SDS011;1512;51.486;6.610;2022-11-20T12:43:06;20.53;;;14.27;;
3004;SDS011;1512;51.486;6.610;2022-11-20T13:01:56;19.13;;;11.13;;
3004;SDS011;1512;51.486;6.610;2022-11-20T13:06:16;21.77;;;12.77;;
3004;SDS011;1512;51.486;6.610;2022-11-20T13:14:47;20.53;;;11.77;;
3004;SDS011;1512;51.486;6.610;2022-11-20T13:19:01;20.30;;;11.63;;
3004;SDS011;1512;51.486;6.610;2022-11-20T13:23:11;23.27;;;12.13;;
3004;SDS011;1512;51.486;6.610;2022-11-20T13:27:22;19.90;;;11.03;;
3004;SDS011;1512;51.486;6.610;2022-11-20T13:31:32;20.53;;;10.70;;
3004;SDS011;1512;51.486;6.610;2022-11-20T13:35:42;27.17;;;12.60;;
3004;SDS011;1512;51.486;6.610;2022-11-20T13:49:05;28.40;;;14.30;;
3004;SDS011;1512;51.486;6.610;2022-11-20T13:53:13;22.00;;;12.83;;
3004;SDS011;1512;51.486;6.610;2022-11-20T13:57:45;16.33;;;11.87;;
3004;SDS011;1512;51.486;6.610;2022-11-20T14:02:03;26.60;;;12.33;;
3004;SDS011;1512;51.486;6.610;2022-11-20T14:10:35;22.13;;;12.47;;
3004;SDS011;1512;51.486;6.610;2022-11-20T14:14:49;20.13;;;12.70;;
3004;SDS011;1512;51.486;6.610;2022-11-20T14:19:17;25.63;;;13.97;;
3004;SDS011;1512;51.486;6.610;2022-11-20T14:23:29;24.20;;;13.93;;
3004;SDS011;1512;51.486;6.610;2022-11-20T14:27:38;21.07;;;12.80;;
3004;SDS011;1512;51.486;6.610;2022-11-20T14:31:51;17.70;;;10.70;;
3004;SDS011;1512;51.486;6.610;2022-11-20T14:36:00;19.37;;;12.73;;
3004;SDS011;1512;51.486;6.610;2022-11-20T14:44:36;15.60;;;12.20;;
3004;SDS011;1512;51.486;6.610;2022-11-20T14:48:55;23.10;;;14.27;;
3004;SDS011;1512;51.486;6.610;2022-11-20T14:53:05;18.20;;;11.93;;
3004;SDS011;1512;51.486;6.610;2022-11-20T15:06:15;16.90;;;11.10;;
3004;SDS011;1512;51.486;6.610;2022-11-20T15:10:27;23.10;;;12.33;;
3004;SDS011;1512;51.486;6.610;2022-11-20T15:14:36;22.27;;;12.30;;
3004;SDS011;1512;51.486;6.610;2022-11-20T15:18:45;25.50;;;12.37;;
3004;SDS011;1512;51.486;6.610;2022-11-20T15:22:54;23.40;;;12.53;;
3004;SDS011;1512;51.486;6.610;2022-11-20T15:27:03;18.50;;;10.53;;
3004;SDS011;1512;51.486;6.610;2022-11-20T15:31:12;28.27;;;10.80;;
3004;SDS011;1512;51.486;6.610;2022-11-20T15:35:22;24.80;;;12.23;;
3004;SDS011;1512;51.486;6.610;2022-11-20T15:39:32;20.17;;;11.23;;
3004;SDS011;1512;51.486;6.610;2022-11-20T15:43:41;21.27;;;12.93;;
3004;SDS011;1512;51.486;6.610;2022-11-20T15:52:19;22.80;;;13.37;;
3004;SDS011;1512;51.486;6.610;2022-11-20T15:56:31;18.20;;;13.17;;
3004;SDS011;1512;51.486;6.610;2022-11-20T16:00:40;28.27;;;13.67;;
3004;SDS011;1512;51.486;6.610;2022-11-20T16:04:48;25.10;;;13.60;;
3004;SDS011;1512;51.486;6.610;2022-11-20T16:08:57;26.53;;;14.43;;
3004;SDS011;1512;51.486;6.610;2022-11-20T16:13:17;25.77;;;14.73;;
3004;SDS011;1512;51.486;6.610;2022-11-20T16:17:41;35.00;;;12.40;;
3004;SDS011;1512;51.486;6.610;2022-11-20T16:26:15;27.53;;;13.97;;
3004;SDS011;1512;51.486;6.610;2022-11-20T16:30:25;23.07;;;15.30;;
3004;SDS011;1512;51.486;6.610;2022-11-20T16:34:34;27.23;;;14.73;;
3004;SDS011;1512;51.486;6.610;2022-11-20T16:38:43;23.20;;;13.77;;
3004;SDS011;1512;51.486;6.610;2022-11-20T16:42:52;26.20;;;14.10;;
3004;SDS011;1512;51.486;6.610;2022-11-20T16:47:01;22.93;;;15.50;;
3004;SDS011;1512;51.486;6.610;2022-11-20T16:51:10;25.10;;;14.10;;
3004;SDS011;1512;51.486;6.610;2022-11-20T16:55:19;17.17;;;11.63;;
3004;SDS011;1512;51.486;6.610;2022-11-20T16:59:28;24.83;;;13.70;;
3004;SDS011;1512;51.486;6.610;2022-11-20T17:03:37;21.63;;;12.43;;
3004;SDS011;1512;51.486;6.610;2022-11-20T17:07:46;24.00;;;12.70;;
3004;SDS011;1512;51.486;6.610;2022-11-20T17:11:55;25.90;;;15.20;;
3004;SDS011;1512;51.486;6.610;2022-11-20T17:16:05;21.97;;;12.50;;
3004;SDS011;1512;51.486;6.610;2022-11-20T17:20:16;21.90;;;12.57;;
3004;SDS011;1512;51.486;6.610;2022-11-20T17:24:24;17.93;;;11.23;;
3004;SDS011;1512;51.486;6.610;2022-11-20T17:28:35;18.97;;;11.20;;
3004;SDS011;1512;51.486;6.610;2022-11-20T17:32:45;20.00;;;12.17;;
3004;SDS011;1512;51.486;6.610;2022-11-20T17:36:53;24.77;;;11.80;;
3004;SDS011;1512;51.486;6.610;2022-11-20T17:41:06;22.27;;;10.97;;
3004;SDS011;1512;51.486;6.610;2022-11-20T17:49:46;20.80;;;11.80;;
3004;SDS011;1512;51.486;6.610;2022-11-20T17:53:56;19.00;;;11.40;;
3004;SDS011;1512;51.486;6.610;2022-11-20T18:02:35;20.63;;;10.87;;
3004;SDS011;1512;51.486;6.610;2022-11-20T18:06:43;13.97;;;9.47;;
3004;SDS011;1512;51.486;6.610;2022-11-20T18:10:53;17.20;;;9.43;;
3004;SDS011;1512;51.486;6.610;2022-11-20T18:15:01;15.33;;;9.10;;
3004;SDS011;1512;51.486;6.610;2022-11-20T18:19:11;17.77;;;11.00;;
3004;SDS011;1512;51.486;6.610;2022-11-20T18:23:22;12.70;;;9.47;;
3004;SDS011;1512;51.486;6.610;2022-11-20T18:27:30;13.05;;;8.75;;
3004;SDS011;1512;51.486;6.610;2022-11-20T18:31:39;11.63;;;8.37;;
3004;SDS011;1512;51.486;6.610;2022-11-20T18:35:48;15.43;;;8.30;;
3004;SDS011;1512;51.486;6.610;2022-11-20T18:39:57;14.23;;;8.53;;
3004;SDS011;1512;51.486;6.610;2022-11-20T18:44:06;10.63;;;7.13;;
3004;SDS011;1512;51.486;6.610;2022-11-20T18:48:35;10.07;;;7.87;;
3004;SDS011;1512;51.486;6.610;2022-11-20T18:52:44;9.00;;;7.20;;
3004;SDS011;1512;51.486;6.610;2022-11-20T18:56:53;13.40;;;7.10;;
3004;SDS011;1512;51.486;6.610;2022-11-20T19:01:06;11.53;;;7.23;;
3004;SDS011;1512;51.486;6.610;2022-11-20T19:05:35;10.60;;;6.37;;
3004;SDS011;1512;51.486;6.610;2022-11-20T19:09:47;12.70;;;8.20;;
3004;SDS011;1512;51.486;6.610;2022-11-20T19:13:56;12.33;;;6.90;;
3004;SDS011;1512;51.486;6.610;2022-11-20T19:18:04;8.33;;;6.53;;
3004;SDS011;1512;51.486;6.610;2022-11-20T19:22:13;9.70;;;8.10;;
3004;SDS011;1512;51.486;6.610;2022-11-20T19:26:22;10.50;;;7.27;;
3004;SDS011;1512;51.486;6.610;2022-11-20T19:35:00;9.87;;;7.20;;
3004;SDS011;1512;51.486;6.610;2022-11-20T19:43:37;20.03;;;9.60;;
3004;SDS011;1512;51.486;6.610;2022-11-20T19:47:46;10.50;;;7.50;;
3004;SDS011;1512;51.486;6.610;2022-11-20T19:51:56;9.83;;;8.57;;
3004;SDS011;1512;51.486;6.610;2022-11-20T19:56:05;13.53;;;9.00;;
3004;SDS011;1512;51.486;6.610;2022-11-20T20:00:14;15.70;;;10.30;;
3004;SDS011;1512;51.486;6.610;2022-11-20T20:04:25;11.87;;;9.73;;
3004;SDS011;1512;51.486;6.610;2022-11-20T20:08:34;13.53;;;9.07;;
3004;SDS011;1512;51.486;6.610;2022-11-20T20:12:44;10.90;;;8.80;;
3004;SDS011;1512;51.486;6.610;2022-11-20T20:16:52;16.20;;;11.33;;
3004;SDS011;1512;51.486;6.610;2022-11-20T20:21:04;16.50;;;11.00;;
3004;SDS011;1512;51.486;6.610;2022-11-20T20:25:14;13.67;;;9.27;;
3004;SDS011;1512;51.486;6.610;2022-11-20T20:29:23;22.60;;;11.07;;
3004;SDS011;1512;51.486;6.610;2022-11-20T20:33:32;18.27;;;10.27;;
3004;SDS011;1512;51.486;6.610;2022-11-20T20:37:42;19.60;;;10.63;;
3004;SDS011;1512;51.486;6.610;2022-11-20T20:41:51;17.97;;;10.60;;
3004;SDS011;1512;51.486;6.610;2022-11-20T20:46:00;21.27;;;13.47;;
3004;SDS011;1512;51.486;6.610;2022-11-20T20:50:09;19.97;;;12.50;;
3004;SDS011;1512;51.486;6.610;2022-11-20T20:54:19;15.60;;;10.60;;
3004;SDS011;1512;51.486;6.610;2022-11-20T20:58:28;15.10;;;10.00;;
3004;SDS011;1512;51.486;6.610;2022-11-20T21:02:37;17.53;;;10.93;;
3004;SDS011;1512;51.486;6.610;2022-11-20T21:06:46;16.13;;;11.30;;
3004;SDS011;1512;51.486;6.610;2022-11-20T21:11:03;25.57;;;12.60;;
3004;SDS011;1512;51.486;6.610;2022-11-20T21:15:12;19.17;;;11.80;;
3004;SDS011;1512;51.486;6.610;2022-11-20T21:19:21;20.00;;;12.70;;
3004;SDS011;1512;51.486;6.610;2022-11-20T21:23:29;20.60;;;10.90;;
3004;SDS011;1512;51.486;6.610;2022-11-20T21:27:38;21.77;;;12.63;;
3004;SDS011;1512;51.486;6.610;2022-11-20T21:31:47;25.87;;;12.70;;
3004;SDS011;1512;51.486;6.610;2022-11-20T21:35:57;21.15;;;12.90;;
3004;SDS011;1512;51.486;6.610;2022-11-20T21:40:07;28.60;;;12.90;;
3004;SDS011;1512;51.486;6.610;2022-11-20T21:44:18;23.70;;;15.07;;
3004;SDS011;1512;51.486;6.610;2022-11-20T21:48:29;24.67;;;14.03;;
3004;SDS011;1512;51.486;6.610;2022-11-20T21:57:07;29.30;;;15.97;;
3004;SDS011;1512;51.486;6.610;2022-11-20T22:01:20;30.03;;;13.13;;
3004;SDS011;1512;51.486;6.610;2022-11-20T22:05:32;32.00;;;14.60;;
3004;SDS011;1512;51.486;6.610;2022-11-20T22:09:41;38.33;;;13.80;;
3004;SDS011;1512;51.486;6.610;2022-11-20T22:13:51;22.53;;;12.30;;
3004;SDS011;1512;51.486;6.610;2022-11-20T22:18:18;25.33;;;12.70;;
3004;SDS011;1512;51.486;6.610;2022-11-20T22:22:28;27.43;;;12.23;;
3004;SDS011;1512;51.486;6.610;2022-11-20T22:26:36;20.50;;;13.40;;
3004;SDS011;1512;51.486;6.610;2022-11-20T22:30:46;18.83;;;11.30;;
3004;SDS011;1512;51.486;6.610;2022-11-20T22:34:55;23.90;;;13.77;;
3004;SDS011;1512;51.486;6.610;2022-11-20T22:43:32;23.63;;;13.87;;
3004;SDS011;1512;51.486;6.610;2022-11-20T22:47:41;20.33;;;11.63;;
3004;SDS011;1512;51.486;6.610;2022-11-20T22:51:49;25.92;;;13.30;;
3004;SDS011;1512;51.486;6.610;2022-11-20T22:55:58;21.13;;;13.33;;
3004;SDS011;1512;51.486;6.610;2022-11-20T23:00:08;21.90;;;12.80;;
3004;SDS011;1512;51.486;6.610;2022-11-20T23:04:17;18.90;;;12.57;;
3004;SDS011;1512;51.486;6.610;2022-11-20T23:08:26;20.10;;;12.40;;
3004;SDS011;1512;51.486;6.610;2022-11-20T23:12:35;21.70;;;13.33;;
3004;SDS011;1512;51.486;6.610;2022-11-20T23:16:43;22.03;;;14.50;;
3004;SDS011;1512;51.486;6.610;2022-11-20T23:20:52;17.20;;;11.80;;
3004;SDS011;1512;51.486;6.610;2022-11-20T23:25:00;15.57;;;12.73;;
3004;SDS011;1512;51.486;6.610;2022-11-20T23:29:09;15.00;;;10.93;;
3004;SDS011;1512;51.486;6.610;2022-11-20T23:33:18;17.07;;;11.70;;
3004;SDS011;1512;51.486;6.610;2022-11-20T23:37:27;21.00;;;12.70;;
3004;SDS011;1512;51.486;6.610;2022-11-20T23:41:36;16.57;;;11.60;;
3004;SDS011;1512;51.486;6.610;2022-11-20T23:45:48;17.57;;;13.43;;
3004;SDS011;1512;51.486;6.610;2022-11-20T23:49:58;25.40;;;14.53;;
3004;SDS011;1512;51.486;6.610;2022-11-20T23:54:07;20.50;;;12.10;;
3004;SDS011;1512;51.486;6.610;2022-11-20T23:58:16;20.30;;;13.40;;
